Navplion, Greece
Current Conditions -  °F | °C
As of 12:50 AM on Saturday 01 Nov 2014 (Local Time) from LGEL Reporting Station
Scattered Clouds Scattered Clouds  
Wind Chill: 55°   Ceiling: Unl
Heat Index: 55°   Visibility: 6mi
Dew Point: 43°   Wind: 7mph
Humidity: 63%   Direction: 360°N
Pressure: 30.12"   Gusts: NA
Location:  37.57°N, 22.81°E
Report Text: LGEL 312250Z 36006KT 9999 FEW030 SCT070 13/06 Q1020
Loading
Personal Weather Stations






























Interactive Weather Map
Tropical Storm Tracking
New forecast layout! Learn more

10-Day Weather Forecast

Advertisements
Track Severe Weather on mobile